sensor_id;sensor_type;location;lat;lon;timestamp;pressure;altitude;pressure_sealevel;temperature;humidity
13312;BME280;34033;48.672;9.376;2022-09-27T00:01:57;96808.53;;;13.46;75.58
13312;BME280;34033;48.672;9.376;2022-09-27T00:04:23;96807.63;;;13.49;76.46
13312;BME280;34033;48.672;9.376;2022-09-27T00:06:48;96805.16;;;13.51;75.97
13312;BME280;34033;48.672;9.376;2022-09-27T00:09:13;96804.47;;;13.47;76.19
13312;BME280;34033;48.672;9.376;2022-09-27T00:11:40;96797.63;;;13.48;76.44
13312;BME280;34033;48.672;9.376;2022-09-27T00:14:11;96798.44;;;13.49;76.34
13312;BME280;34033;48.672;9.376;2022-09-27T00:16:38;96805.06;;;13.55;76.85
13312;BME280;34033;48.672;9.376;2022-09-27T00:19:07;96800.31;;;13.52;76.54
13312;BME280;34033;48.672;9.376;2022-09-27T00:21:33;96797.88;;;13.54;76.48
13312;BME280;34033;48.672;9.376;2022-09-27T00:23:59;96796.94;;;13.57;76.78
13312;BME280;34033;48.672;9.376;2022-09-27T00:26:25;96791.34;;;13.57;76.06
13312;BME280;34033;48.672;9.376;2022-09-27T00:28:51;96797.28;;;13.59;76.49
13312;BME280;34033;48.672;9.376;2022-09-27T00:31:28;96790.91;;;13.58;76.91
13312;BME280;34033;48.672;9.376;2022-09-27T00:33:55;96788.78;;;13.50;75.30
13312;BME280;34033;48.672;9.376;2022-09-27T00:36:21;96779.13;;;13.38;76.82
13312;BME280;34033;48.672;9.376;2022-09-27T00:38:47;96779.22;;;13.34;77.20
13312;BME280;34033;48.672;9.376;2022-09-27T00:41:22;96770.13;;;13.30;77.02
13312;BME280;34033;48.672;9.376;2022-09-27T00:43:55;96764.88;;;13.32;77.34
13312;BME280;34033;48.672;9.376;2022-09-27T00:46:32;96772.16;;;13.30;77.18
13312;BME280;34033;48.672;9.376;2022-09-27T00:49:30;96767.00;;;13.16;78.42
13312;BME280;34033;48.672;9.376;2022-09-27T00:52:02;96768.88;;;13.06;78.01
13312;BME280;34033;48.672;9.376;2022-09-27T00:54:30;96766.06;;;13.06;78.66
13312;BME280;34033;48.672;9.376;2022-09-27T00:56:58;96759.53;;;13.09;78.80
13312;BME280;34033;48.672;9.376;2022-09-27T00:59:34;96749.22;;;13.06;78.38
13312;BME280;34033;48.672;9.376;2022-09-27T01:02:03;96754.03;;;12.93;78.36
13312;BME280;34033;48.672;9.376;2022-09-27T01:04:31;96752.38;;;12.95;79.02
13312;BME280;34033;48.672;9.376;2022-09-27T01:06:58;96762.44;;;12.93;79.15
13312;BME280;34033;48.672;9.376;2022-09-27T01:09:24;96760.75;;;12.83;78.68
13312;BME280;34033;48.672;9.376;2022-09-27T01:11:57;96754.66;;;12.72;79.43
13312;BME280;34033;48.672;9.376;2022-09-27T01:17:48;96756.25;;;12.73;80.62
13312;BME280;34033;48.672;9.376;2022-09-27T01:23:44;96742.66;;;12.71;80.70
13312;BME280;34033;48.672;9.376;2022-09-27T01:40:10;96751.78;;;12.46;81.04
13312;BME280;34033;48.672;9.376;2022-09-27T01:45:34;96750.91;;;12.21;82.35
13312;BME280;34033;48.672;9.376;2022-09-27T01:48:10;96743.78;;;12.32;82.35
13312;BME280;34033;48.672;9.376;2022-09-27T01:50:44;96751.66;;;12.37;82.03
13312;BME280;34033;48.672;9.376;2022-09-27T01:53:30;96754.00;;;12.39;82.23
13312;BME280;34033;48.672;9.376;2022-09-27T01:56:02;96751.09;;;12.42;81.33
13312;BME280;34033;48.672;9.376;2022-09-27T01:58:35;96753.59;;;12.40;82.01
13312;BME280;34033;48.672;9.376;2022-09-27T02:01:04;96739.56;;;12.40;82.22
13312;BME280;34033;48.672;9.376;2022-09-27T02:03:34;96745.53;;;12.55;81.85
13312;BME280;34033;48.672;9.376;2022-09-27T02:06:02;96741.03;;;12.45;80.79
13312;BME280;34033;48.672;9.376;2022-09-27T02:08:32;96736.41;;;12.38;81.67
13312;BME280;34033;48.672;9.376;2022-09-27T02:11:04;96745.31;;;12.49;82.11
13312;BME280;34033;48.672;9.376;2022-09-27T02:13:39;96747.88;;;12.44;81.61
13312;BME280;34033;48.672;9.376;2022-09-27T02:16:53;96734.09;;;12.49;82.60
13312;BME280;34033;48.672;9.376;2022-09-27T02:19:30;96741.59;;;12.52;82.89
13312;BME280;34033;48.672;9.376;2022-09-27T02:24:54;96746.41;;;12.52;82.34
13312;BME280;34033;48.672;9.376;2022-09-27T02:27:30;96752.13;;;12.48;81.65
13312;BME280;34033;48.672;9.376;2022-09-27T02:30:02;96756.22;;;12.60;83.09
13312;BME280;34033;48.672;9.376;2022-09-27T02:32:28;96769.13;;;12.29;82.83
13312;BME280;34033;48.672;9.376;2022-09-27T02:34:56;96770.28;;;12.15;84.73
13312;BME280;34033;48.672;9.376;2022-09-27T02:37:23;96781.38;;;12.19;85.83
13312;BME280;34033;48.672;9.376;2022-09-27T02:39:48;96778.50;;;12.22;86.18
13312;BME280;34033;48.672;9.376;2022-09-27T02:42:14;96782.25;;;12.16;86.52
13312;BME280;34033;48.672;9.376;2022-09-27T02:44:40;96775.09;;;12.15;87.75
13312;BME280;34033;48.672;9.376;2022-09-27T02:47:23;96774.28;;;12.14;87.99
13312;BME280;34033;48.672;9.376;2022-09-27T02:50:25;96779.56;;;12.12;85.89
13312;BME280;34033;48.672;9.376;2022-09-27T02:58:36;96794.63;;;11.86;88.52
13312;BME280;34033;48.672;9.376;2022-09-27T03:06:21;96809.09;;;12.00;87.49
13312;BME280;34033;48.672;9.376;2022-09-27T03:08:48;96813.72;;;11.91;86.45
13312;BME280;34033;48.672;9.376;2022-09-27T03:11:14;96813.13;;;11.83;87.44
13312;BME280;34033;48.672;9.376;2022-09-27T03:13:39;96816.53;;;11.91;89.28
13312;BME280;34033;48.672;9.376;2022-09-27T03:16:05;96814.41;;;12.11;89.37
13312;BME280;34033;48.672;9.376;2022-09-27T03:18:31;96819.38;;;12.03;87.07
13312;BME280;34033;48.672;9.376;2022-09-27T03:20:57;96819.91;;;12.15;86.14
13312;BME280;34033;48.672;9.376;2022-09-27T03:23:22;96830.75;;;12.29;86.62
13312;BME280;34033;48.672;9.376;2022-09-27T03:25:48;96831.53;;;12.29;84.52
13312;BME280;34033;48.672;9.376;2022-09-27T03:28:14;96826.56;;;12.21;83.84
13312;BME280;34033;48.672;9.376;2022-09-27T03:30:39;96837.84;;;12.17;84.00
13312;BME280;34033;48.672;9.376;2022-09-27T03:33:06;96842.75;;;12.13;83.57
13312;BME280;34033;48.672;9.376;2022-09-27T03:35:33;96833.28;;;12.23;83.86
13312;BME280;34033;48.672;9.376;2022-09-27T03:37:58;96834.25;;;12.33;82.95
13312;BME280;34033;48.672;9.376;2022-09-27T03:40:24;96838.41;;;12.41;82.68
13312;BME280;34033;48.672;9.376;2022-09-27T03:42:49;96838.25;;;12.32;81.85
13312;BME280;34033;48.672;9.376;2022-09-27T03:45:15;96837.75;;;12.21;80.53
13312;BME280;34033;48.672;9.376;2022-09-27T03:47:41;96844.00;;;11.96;81.72
13312;BME280;34033;48.672;9.376;2022-09-27T03:50:07;96842.44;;;11.95;82.31
13312;BME280;34033;48.672;9.376;2022-09-27T03:52:33;96845.22;;;11.79;82.79
13312;BME280;34033;48.672;9.376;2022-09-27T03:54:59;96840.22;;;11.86;82.88
13312;BME280;34033;48.672;9.376;2022-09-27T03:57:24;96851.34;;;11.90;82.62
13312;BME280;34033;48.672;9.376;2022-09-27T03:59:50;96846.88;;;11.92;82.54
13312;BME280;34033;48.672;9.376;2022-09-27T04:02:15;96852.94;;;11.91;84.08
13312;BME280;34033;48.672;9.376;2022-09-27T04:04:41;96851.25;;;11.93;84.21
13312;BME280;34033;48.672;9.376;2022-09-27T04:07:07;96845.66;;;12.09;87.39
13312;BME280;34033;48.672;9.376;2022-09-27T04:09:34;96851.16;;;11.97;84.40
13312;BME280;34033;48.672;9.376;2022-09-27T04:12:02;96843.78;;;11.70;85.04
13312;BME280;34033;48.672;9.376;2022-09-27T04:14:27;96847.97;;;11.62;85.64
13312;BME280;34033;48.672;9.376;2022-09-27T04:16:53;96847.88;;;11.66;86.34
13312;BME280;34033;48.672;9.376;2022-09-27T04:19:18;96849.59;;;11.96;87.20
13312;BME280;34033;48.672;9.376;2022-09-27T04:21:44;96851.63;;;11.95;85.03
13312;BME280;34033;48.672;9.376;2022-09-27T04:24:09;96854.31;;;12.15;86.12
13312;BME280;34033;48.672;9.376;2022-09-27T04:26:36;96857.78;;;12.19;84.04
13312;BME280;34033;48.672;9.376;2022-09-27T04:29:02;96848.00;;;12.27;83.88
13312;BME280;34033;48.672;9.376;2022-09-27T04:31:28;96851.72;;;12.37;87.22
13312;BME280;34033;48.672;9.376;2022-09-27T04:33:54;96861.53;;;12.45;83.88
13312;BME280;34033;48.672;9.376;2022-09-27T04:36:20;96859.16;;;12.43;82.97
13312;BME280;34033;48.672;9.376;2022-09-27T04:38:56;96867.81;;;12.49;83.24
13312;BME280;34033;48.672;9.376;2022-09-27T04:41:23;96867.22;;;12.41;80.28
13312;BME280;34033;48.672;9.376;2022-09-27T04:43:52;96874.78;;;12.28;78.95
13312;BME280;34033;48.672;9.376;2022-09-27T04:46:18;96878.47;;;12.09;79.58
13312;BME280;34033;48.672;9.376;2022-09-27T04:48:47;96869.38;;;11.89;80.66
13312;BME280;34033;48.672;9.376;2022-09-27T04:51:14;96884.94;;;11.90;80.47
13312;BME280;34033;48.672;9.376;2022-09-27T04:53:45;96874.66;;;11.67;80.92
13312;BME280;34033;48.672;9.376;2022-09-27T04:56:12;96884.97;;;11.70;80.78
13312;BME280;34033;48.672;9.376;2022-09-27T04:58:38;96881.63;;;11.79;81.09
13312;BME280;34033;48.672;9.376;2022-09-27T05:01:04;96888.88;;;11.92;81.48
13312;BME280;34033;48.672;9.376;2022-09-27T05:03:30;96896.47;;;12.08;81.04
13312;BME280;34033;48.672;9.376;2022-09-27T05:05:56;96890.53;;;12.22;81.30
13312;BME280;34033;48.672;9.376;2022-09-27T05:08:22;96899.47;;;12.33;79.36
13312;BME280;34033;48.672;9.376;2022-09-27T05:10:47;96898.41;;;12.43;79.10
13312;BME280;34033;48.672;9.376;2022-09-27T05:13:14;96908.66;;;12.34;77.85
13312;BME280;34033;48.672;9.376;2022-09-27T05:15:40;96909.53;;;12.31;78.35
13312;BME280;34033;48.672;9.376;2022-09-27T05:18:06;96908.41;;;12.28;78.34
13312;BME280;34033;48.672;9.376;2022-09-27T05:20:35;96903.22;;;12.27;78.45
13312;BME280;34033;48.672;9.376;2022-09-27T05:23:01;96915.22;;;12.11;77.86
13312;BME280;34033;48.672;9.376;2022-09-27T05:25:29;96914.09;;;12.08;77.25
13312;BME280;34033;48.672;9.376;2022-09-27T05:27:56;96912.50;;;11.91;78.24
13312;BME280;34033;48.672;9.376;2022-09-27T05:30:23;96917.91;;;11.82;78.40
13312;BME280;34033;48.672;9.376;2022-09-27T05:32:49;96916.44;;;11.78;78.62
13312;BME280;34033;48.672;9.376;2022-09-27T05:35:15;96921.94;;;11.81;80.07
13312;BME280;34033;48.672;9.376;2022-09-27T05:37:43;96925.00;;;11.87;79.85
13312;BME280;34033;48.672;9.376;2022-09-27T05:40:08;96934.56;;;11.89;80.22
13312;BME280;34033;48.672;9.376;2022-09-27T05:42:34;96927.75;;;11.90;79.51
13312;BME280;34033;48.672;9.376;2022-09-27T05:45:03;96935.53;;;11.99;79.50
13312;BME280;34033;48.672;9.376;2022-09-27T05:47:29;96935.38;;;12.06;79.26
13312;BME280;34033;48.672;9.376;2022-09-27T05:49:54;96941.84;;;12.19;79.58
13312;BME280;34033;48.672;9.376;2022-09-27T05:52:20;96943.09;;;12.18;79.07
13312;BME280;34033;48.672;9.376;2022-09-27T05:54:45;96940.72;;;12.17;78.53
13312;BME280;34033;48.672;9.376;2022-09-27T05:57:10;96960.56;;;12.06;78.84
13312;BME280;34033;48.672;9.376;2022-09-27T05:59:36;96961.63;;;11.96;79.31
13312;BME280;34033;48.672;9.376;2022-09-27T06:02:01;96964.06;;;11.94;79.64
13312;BME280;34033;48.672;9.376;2022-09-27T06:04:27;96969.47;;;11.85;79.71
13312;BME280;34033;48.672;9.376;2022-09-27T06:06:52;96962.22;;;11.67;80.52
13312;BME280;34033;48.672;9.376;2022-09-27T06:09:17;96967.97;;;11.60;81.70
13312;BME280;34033;48.672;9.376;2022-09-27T06:11:43;96970.06;;;11.56;82.13
13312;BME280;34033;48.672;9.376;2022-09-27T06:14:10;96970.91;;;11.53;82.98
13312;BME280;34033;48.672;9.376;2022-09-27T06:16:36;96976.88;;;11.55;82.59
13312;BME280;34033;48.672;9.376;2022-09-27T06:19:01;96984.59;;;11.67;82.72
13312;BME280;34033;48.672;9.376;2022-09-27T06:21:28;96979.06;;;11.64;82.89
13312;BME280;34033;48.672;9.376;2022-09-27T06:23:55;96987.13;;;11.62;81.70
13312;BME280;34033;48.672;9.376;2022-09-27T06:26:21;96989.47;;;11.63;80.21
13312;BME280;34033;48.672;9.376;2022-09-27T06:28:46;96991.09;;;11.45;80.03
13312;BME280;34033;48.672;9.376;2022-09-27T06:31:12;97001.53;;;11.21;80.50
13312;BME280;34033;48.672;9.376;2022-09-27T06:33:38;97006.13;;;11.31;81.15
13312;BME280;34033;48.672;9.376;2022-09-27T06:36:04;97002.63;;;11.27;79.65
13312;BME280;34033;48.672;9.376;2022-09-27T06:38:31;97006.44;;;11.17;79.98
13312;BME280;34033;48.672;9.376;2022-09-27T06:41:00;97010.88;;;11.34;80.95
13312;BME280;34033;48.672;9.376;2022-09-27T06:43:26;97020.28;;;11.44;78.52
13312;BME280;34033;48.672;9.376;2022-09-27T06:45:52;97013.19;;;11.39;78.57
13312;BME280;34033;48.672;9.376;2022-09-27T06:48:18;97016.19;;;11.48;78.79
13312;BME280;34033;48.672;9.376;2022-09-27T06:50:44;97021.50;;;11.62;78.34
13312;BME280;34033;48.672;9.376;2022-09-27T06:53:12;97020.63;;;11.65;77.47
13312;BME280;34033;48.672;9.376;2022-09-27T06:55:39;97032.25;;;11.44;78.19
13312;BME280;34033;48.672;9.376;2022-09-27T06:58:05;97030.09;;;11.32;79.52
13312;BME280;34033;48.672;9.376;2022-09-27T07:00:52;97041.75;;;11.50;79.93
13312;BME280;34033;48.672;9.376;2022-09-27T07:03:21;97037.56;;;11.58;79.21
13312;BME280;34033;48.672;9.376;2022-09-27T07:05:58;97039.28;;;11.52;78.67
13312;BME280;34033;48.672;9.376;2022-09-27T07:08:24;97045.41;;;11.67;78.83
13312;BME280;34033;48.672;9.376;2022-09-27T07:10:50;97045.91;;;11.62;77.77
13312;BME280;34033;48.672;9.376;2022-09-27T07:13:17;97064.41;;;11.56;78.81
13312;BME280;34033;48.672;9.376;2022-09-27T07:15:43;97055.22;;;11.55;79.48
13312;BME280;34033;48.672;9.376;2022-09-27T07:18:08;97064.88;;;11.74;79.74
13312;BME280;34033;48.672;9.376;2022-09-27T07:20:34;97064.72;;;11.81;78.46
13312;BME280;34033;48.672;9.376;2022-09-27T07:23:04;97066.13;;;12.09;78.81
13312;BME280;34033;48.672;9.376;2022-09-27T07:25:30;97057.19;;;12.14;77.56
13312;BME280;34033;48.672;9.376;2022-09-27T07:28:00;97075.34;;;12.26;77.74
13312;BME280;34033;48.672;9.376;2022-09-27T07:30:26;97072.44;;;12.13;77.40
13312;BME280;34033;48.672;9.376;2022-09-27T07:32:59;97075.97;;;11.97;77.08
13312;BME280;34033;48.672;9.376;2022-09-27T07:35:25;97068.66;;;12.03;77.37
13312;BME280;34033;48.672;9.376;2022-09-27T07:37:51;97068.22;;;12.05;76.14
13312;BME280;34033;48.672;9.376;2022-09-27T07:40:17;97083.47;;;12.20;76.87
13312;BME280;34033;48.672;9.376;2022-09-27T07:42:43;97081.47;;;12.21;77.70
13312;BME280;34033;48.672;9.376;2022-09-27T07:45:09;97083.34;;;12.27;78.07
13312;BME280;34033;48.672;9.376;2022-09-27T07:47:37;97081.94;;;12.35;77.55
13312;BME280;34033;48.672;9.376;2022-09-27T07:50:07;97091.41;;;12.41;77.55
13312;BME280;34033;48.672;9.376;2022-09-27T07:52:40;97088.56;;;12.61;77.50
13312;BME280;34033;48.672;9.376;2022-09-27T07:55:08;97096.34;;;12.70;76.55
13312;BME280;34033;48.672;9.376;2022-09-27T07:57:35;97098.50;;;12.46;75.59
13312;BME280;34033;48.672;9.376;2022-09-27T08:00:02;97094.41;;;12.50;74.85
13312;BME280;34033;48.672;9.376;2022-09-27T08:02:27;97104.03;;;12.49;74.08
13312;BME280;34033;48.672;9.376;2022-09-27T08:04:53;97099.50;;;12.56;74.91
13312;BME280;34033;48.672;9.376;2022-09-27T08:07:19;97099.94;;;12.54;74.40
13312;BME280;34033;48.672;9.376;2022-09-27T08:09:45;97098.63;;;12.75;73.08
13312;BME280;34033;48.672;9.376;2022-09-27T08:12:10;97120.28;;;12.74;70.19
13312;BME280;34033;48.672;9.376;2022-09-27T08:14:35;97118.09;;;12.82;68.88
13312;BME280;34033;48.672;9.376;2022-09-27T08:17:01;97128.00;;;13.03;68.41
13312;BME280;34033;48.672;9.376;2022-09-27T08:19:26;97122.13;;;12.81;66.44
13312;BME280;34033;48.672;9.376;2022-09-27T08:21:52;97127.41;;;12.95;66.83
13312;BME280;34033;48.672;9.376;2022-09-27T08:24:19;97128.63;;;13.10;66.89
13312;BME280;34033;48.672;9.376;2022-09-27T08:26:44;97120.94;;;13.14;64.64
13312;BME280;34033;48.672;9.376;2022-09-27T08:29:10;97129.34;;;13.14;65.69
13312;BME280;34033;48.672;9.376;2022-09-27T08:31:36;97135.19;;;13.04;63.90
13312;BME280;34033;48.672;9.376;2022-09-27T08:34:02;97141.75;;;12.97;64.04
13312;BME280;34033;48.672;9.376;2022-09-27T08:36:28;97142.38;;;12.72;65.34
13312;BME280;34033;48.672;9.376;2022-09-27T08:38:54;97141.31;;;12.82;66.49
13312;BME280;34033;48.672;9.376;2022-09-27T08:41:55;97158.16;;;12.82;64.66
13312;BME280;34033;48.672;9.376;2022-09-27T08:49:40;97141.63;;;13.20;64.62
13312;BME280;34033;48.672;9.376;2022-09-27T08:52:20;97140.75;;;13.40;65.23
13312;BME280;34033;48.672;9.376;2022-09-27T08:54:48;97143.00;;;13.61;64.69
13312;BME280;34033;48.672;9.376;2022-09-27T08:57:14;97146.63;;;13.74;63.78
13312;BME280;34033;48.672;9.376;2022-09-27T08:59:49;97144.53;;;13.78;63.74
13312;BME280;34033;48.672;9.376;2022-09-27T09:02:21;97154.53;;;13.63;64.17
13312;BME280;34033;48.672;9.376;2022-09-27T09:04:55;97143.03;;;13.28;64.48
13312;BME280;34033;48.672;9.376;2022-09-27T09:10:01;97160.81;;;13.06;66.31
13312;BME280;34033;48.672;9.376;2022-09-27T09:18:32;97166.22;;;12.25;67.80
13312;BME280;34033;48.672;9.376;2022-09-27T09:21:21;97158.63;;;12.25;68.64
13312;BME280;34033;48.672;9.376;2022-09-27T09:32:10;97160.84;;;12.86;65.88
13312;BME280;34033;48.672;9.376;2022-09-27T09:34:43;97157.63;;;13.04;66.19
13312;BME280;34033;48.672;9.376;2022-09-27T09:37:21;97161.47;;;12.77;65.70
13312;BME280;34033;48.672;9.376;2022-09-27T09:39:59;97166.56;;;12.46;65.64
13312;BME280;34033;48.672;9.376;2022-09-27T09:45:19;97163.38;;;12.64;66.03
13312;BME280;34033;48.672;9.376;2022-09-27T09:48:02;97160.41;;;12.71;64.63
13312;BME280;34033;48.672;9.376;2022-09-27T09:50:39;97162.78;;;12.73;63.22
13312;BME280;34033;48.672;9.376;2022-09-27T09:56:02;97161.25;;;13.20;63.78
13312;BME280;34033;48.672;9.376;2022-09-27T09:58:43;97159.94;;;13.41;62.49
13312;BME280;34033;48.672;9.376;2022-09-27T10:01:18;97152.22;;;13.45;62.93
13312;BME280;34033;48.672;9.376;2022-09-27T10:03:44;97145.47;;;13.43;62.42
13312;BME280;34033;48.672;9.376;2022-09-27T10:06:11;97151.31;;;13.64;64.40
13312;BME280;34033;48.672;9.376;2022-09-27T10:08:38;97157.59;;;13.68;61.73
13312;BME280;34033;48.672;9.376;2022-09-27T10:11:05;97140.81;;;13.81;61.60
13312;BME280;34033;48.672;9.376;2022-09-27T10:13:32;97137.34;;;13.90;61.13
13312;BME280;34033;48.672;9.376;2022-09-27T10:16:11;97134.91;;;14.33;61.87
13312;BME280;34033;48.672;9.376;2022-09-27T10:18:39;97139.69;;;14.49;58.14
13312;BME280;34033;48.672;9.376;2022-09-27T10:21:10;97134.84;;;14.37;58.30
13312;BME280;34033;48.672;9.376;2022-09-27T10:26:29;97119.94;;;13.82;58.55
13312;BME280;34033;48.672;9.376;2022-09-27T10:28:56;97120.97;;;13.88;60.05
13312;BME280;34033;48.672;9.376;2022-09-27T10:31:21;97130.78;;;13.51;60.03
13312;BME280;34033;48.672;9.376;2022-09-27T10:33:53;97126.69;;;13.56;60.99
13312;BME280;34033;48.672;9.376;2022-09-27T10:36:28;97123.16;;;13.52;61.04
13312;BME280;34033;48.672;9.376;2022-09-27T10:38:56;97124.50;;;13.76;61.06
13312;BME280;34033;48.672;9.376;2022-09-27T10:41:34;97127.63;;;13.65;60.73
13312;BME280;34033;48.672;9.376;2022-09-27T10:46:48;97132.22;;;13.88;61.62
13312;BME280;34033;48.672;9.376;2022-09-27T10:51:59;97122.56;;;14.02;62.15
13312;BME280;34033;48.672;9.376;2022-09-27T10:57:02;97117.91;;;13.83;62.75
13312;BME280;34033;48.672;9.376;2022-09-27T10:59:34;97110.22;;;13.99;61.98
13312;BME280;34033;48.672;9.376;2022-09-27T11:02:01;97106.34;;;14.22;62.00
13312;BME280;34033;48.672;9.376;2022-09-27T11:04:28;97110.56;;;14.43;60.71
13312;BME280;34033;48.672;9.376;2022-09-27T11:07:16;97104.47;;;14.57;59.60
13312;BME280;34033;48.672;9.376;2022-09-27T11:09:49;97097.06;;;14.88;58.44
13312;BME280;34033;48.672;9.376;2022-09-27T11:12:17;97099.88;;;14.88;57.51
13312;BME280;34033;48.672;9.376;2022-09-27T11:15:09;97094.91;;;14.80;55.81
13312;BME280;34033;48.672;9.376;2022-09-27T11:34:02;97076.94;;;14.77;56.90
13312;BME280;34033;48.672;9.376;2022-09-27T11:44:43;97052.97;;;14.47;57.12
13312;BME280;34033;48.672;9.376;2022-09-27T11:47:40;97055.06;;;14.31;56.16
13312;BME280;34033;48.672;9.376;2022-09-27T12:09:31;97039.38;;;14.58;55.84
13312;BME280;34033;48.672;9.376;2022-09-27T12:12:10;97045.88;;;14.55;55.53
13312;BME280;34033;48.672;9.376;2022-09-27T12:14:42;97037.28;;;14.34;56.26
13312;BME280;34033;48.672;9.376;2022-09-27T12:17:19;97042.56;;;14.06;57.01
13312;BME280;34033;48.672;9.376;2022-09-27T12:19:48;97041.88;;;14.02;58.11
13312;BME280;34033;48.672;9.376;2022-09-27T12:22:20;97047.69;;;13.83;59.25
13312;BME280;34033;48.672;9.376;2022-09-27T12:24:46;97056.44;;;13.72;60.84
13312;BME280;34033;48.672;9.376;2022-09-27T12:29:49;97066.19;;;13.39;64.75
13312;BME280;34033;48.672;9.376;2022-09-27T12:32:25;97074.53;;;13.26;67.25
13312;BME280;34033;48.672;9.376;2022-09-27T12:35:20;97076.69;;;13.34;68.04
13312;BME280;34033;48.672;9.376;2022-09-27T12:37:58;97075.50;;;13.19;70.02
13312;BME280;34033;48.672;9.376;2022-09-27T12:40:32;97068.03;;;13.29;70.19
13312;BME280;34033;48.672;9.376;2022-09-27T12:43:01;97077.88;;;13.21;71.46
13312;BME280;34033;48.672;9.376;2022-09-27T12:48:27;97078.56;;;13.25;70.51
13312;BME280;34033;48.672;9.376;2022-09-27T12:54:38;97076.97;;;13.08;72.35
13312;BME280;34033;48.672;9.376;2022-09-27T12:57:00;97076.28;;;13.20;72.67
13312;BME280;34033;48.672;9.376;2022-09-27T13:05:34;97079.97;;;13.62;72.28
13312;BME280;34033;48.672;9.376;2022-09-27T13:13:41;97078.72;;;13.63;71.55
13312;BME280;34033;48.672;9.376;2022-09-27T13:16:08;97069.22;;;13.73;71.23
13312;BME280;34033;48.672;9.376;2022-09-27T13:18:51;97077.13;;;13.78;71.03
13312;BME280;34033;48.672;9.376;2022-09-27T13:29:48;97062.47;;;14.12;68.15
13312;BME280;34033;48.672;9.376;2022-09-27T13:32:16;97055.09;;;13.76;68.58
13312;BME280;34033;48.672;9.376;2022-09-27T13:34:43;97054.66;;;13.49;69.85
13312;BME280;34033;48.672;9.376;2022-09-27T13:40:19;97048.81;;;13.44;70.35
13312;BME280;34033;48.672;9.376;2022-09-27T13:42:55;97049.22;;;13.71;79.88
13312;BME280;34033;48.672;9.376;2022-09-27T13:45:30;97047.13;;;14.42;73.47
13312;BME280;34033;48.672;9.376;2022-09-27T13:47:58;97042.91;;;14.34;66.35
13312;BME280;34033;48.672;9.376;2022-09-27T13:53:04;97047.78;;;14.46;68.34
13312;BME280;34033;48.672;9.376;2022-09-27T14:01:16;97044.63;;;14.82;65.18
13312;BME280;34033;48.672;9.376;2022-09-27T14:04:05;97048.25;;;14.82;61.38
13312;BME280;34033;48.672;9.376;2022-09-27T14:06:43;97040.91;;;14.22;61.17
13312;BME280;34033;48.672;9.376;2022-09-27T14:09:22;97024.03;;;14.34;62.60
13312;BME280;34033;48.672;9.376;2022-09-27T14:11:54;97036.47;;;13.95;62.55
13312;BME280;34033;48.672;9.376;2022-09-27T14:14:23;97032.03;;;14.10;64.40
13312;BME280;34033;48.672;9.376;2022-09-27T14:16:50;97032.03;;;14.10;63.53
13312;BME280;34033;48.672;9.376;2022-09-27T14:19:19;97019.53;;;13.99;63.12
13312;BME280;34033;48.672;9.376;2022-09-27T14:21:45;97028.19;;;14.04;64.18
13312;BME280;34033;48.672;9.376;2022-09-27T14:24:30;97022.69;;;14.13;64.62
13312;BME280;34033;48.672;9.376;2022-09-27T14:29:57;97023.53;;;13.85;62.26
13312;BME280;34033;48.672;9.376;2022-09-27T14:32:31;97039.63;;;13.97;63.23
13312;BME280;34033;48.672;9.376;2022-09-27T14:35:21;97044.34;;;14.00;61.08
13312;BME280;34033;48.672;9.376;2022-09-27T14:38:12;97046.97;;;14.20;59.51
13312;BME280;34033;48.672;9.376;2022-09-27T14:40:57;97053.66;;;14.64;58.53
13312;BME280;34033;48.672;9.376;2022-09-27T14:43:24;97052.22;;;15.07;58.61
13312;BME280;34033;48.672;9.376;2022-09-27T14:45:52;97043.00;;;15.40;55.86
13312;BME280;34033;48.672;9.376;2022-09-27T14:48:32;97050.47;;;15.34;55.61
13312;BME280;34033;48.672;9.376;2022-09-27T14:53:31;97059.66;;;15.00;57.63
13312;BME280;34033;48.672;9.376;2022-09-27T14:55:57;97058.50;;;15.23;56.24
13312;BME280;34033;48.672;9.376;2022-09-27T14:58:23;97062.53;;;15.69;54.89
13312;BME280;34033;48.672;9.376;2022-09-27T15:00:54;97060.56;;;15.44;53.34
13312;BME280;34033;48.672;9.376;2022-09-27T15:03:30;97057.47;;;15.64;54.85
13312;BME280;34033;48.672;9.376;2022-09-27T15:05:57;97061.78;;;16.00;53.34
13312;BME280;34033;48.672;9.376;2022-09-27T15:08:25;97050.91;;;16.11;53.53
13312;BME280;34033;48.672;9.376;2022-09-27T15:10:52;97059.22;;;16.67;51.84
13312;BME280;34033;48.672;9.376;2022-09-27T15:13:19;97056.97;;;17.02;50.34
13312;BME280;34033;48.672;9.376;2022-09-27T15:15:45;97051.63;;;17.04;49.85
13312;BME280;34033;48.672;9.376;2022-09-27T15:21:33;97059.47;;;16.60;49.08
13312;BME280;34033;48.672;9.376;2022-09-27T15:23:58;97068.03;;;15.73;50.45
13312;BME280;34033;48.672;9.376;2022-09-27T15:26:43;97073.34;;;15.71;52.02
13312;BME280;34033;48.672;9.376;2022-09-27T15:29:18;97059.66;;;16.35;51.75
13312;BME280;34033;48.672;9.376;2022-09-27T15:31:44;97055.25;;;17.04;49.92
13312;BME280;34033;48.672;9.376;2022-09-27T15:34:16;97059.28;;;17.62;47.62
13312;BME280;34033;48.672;9.376;2022-09-27T15:39:18;97057.31;;;17.31;47.75
13312;BME280;34033;48.672;9.376;2022-09-27T15:52:45;97083.91;;;14.47;54.76
13312;BME280;34033;48.672;9.376;2022-09-27T15:55:18;97070.72;;;14.32;55.32
13312;BME280;34033;48.672;9.376;2022-09-27T15:57:48;97077.00;;;14.36;57.02
13312;BME280;34033;48.672;9.376;2022-09-27T16:00:17;97082.84;;;14.29;56.98
13312;BME280;34033;48.672;9.376;2022-09-27T16:02:43;97073.06;;;14.20;57.34
13312;BME280;34033;48.672;9.376;2022-09-27T16:05:09;97077.31;;;15.14;79.71
13312;BME280;34033;48.672;9.376;2022-09-27T16:07:35;97088.03;;;15.88;70.77
13312;BME280;34033;48.672;9.376;2022-09-27T16:10:00;97071.94;;;16.50;65.12
13312;BME280;34033;48.672;9.376;2022-09-27T16:12:26;97084.06;;;16.90;58.63
13312;BME280;34033;48.672;9.376;2022-09-27T16:14:54;97083.69;;;17.28;56.40
13312;BME280;34033;48.672;9.376;2022-09-27T16:17:20;97095.91;;;16.76;49.75